sensor_id;sensor_type;location;lat;lon;timestamp;pressure;altitude;pressure_sealevel;temperature;humidity
27712;BME280;2377;51.734;8.950;2023-02-27T00:00:26;98813.19;;;0.44;74.25
27712;BME280;2377;51.734;8.950;2023-02-27T00:02:53;98816.38;;;0.46;74.64
27712;BME280;2377;51.734;8.950;2023-02-27T00:05:20;98813.75;;;0.48;74.55
27712;BME280;2377;51.734;8.950;2023-02-27T00:07:48;98807.78;;;0.49;74.82
27712;BME280;2377;51.734;8.950;2023-02-27T00:10:15;98806.22;;;0.48;74.73
27712;BME280;2377;51.734;8.950;2023-02-27T00:12:44;98811.34;;;0.46;74.45
27712;BME280;2377;51.734;8.950;2023-02-27T00:15:14;98803.28;;;0.43;74.61
27712;BME280;2377;51.734;8.950;2023-02-27T00:17:42;98808.66;;;0.38;75.37
27712;BME280;2377;51.734;8.950;2023-02-27T00:20:14;98801.34;;;0.35;75.30
27712;BME280;2377;51.734;8.950;2023-02-27T00:22:43;98803.53;;;0.28;75.71
27712;BME280;2377;51.734;8.950;2023-02-27T00:25:11;98799.56;;;0.26;75.33
27712;BME280;2377;51.734;8.950;2023-02-27T00:27:39;98802.31;;;0.23;75.69
27712;BME280;2377;51.734;8.950;2023-02-27T00:30:11;98806.66;;;0.20;74.99
27712;BME280;2377;51.734;8.950;2023-02-27T00:32:39;98803.19;;;0.12;74.70
27712;BME280;2377;51.734;8.950;2023-02-27T00:35:09;98808.69;;;0.06;74.61
27712;BME280;2377;51.734;8.950;2023-02-27T00:37:37;98812.69;;;-0.03;74.42
27712;BME280;2377;51.734;8.950;2023-02-27T00:40:07;98812.28;;;-0.08;74.94
27712;BME280;2377;51.734;8.950;2023-02-27T00:42:34;98811.03;;;-0.14;74.67
27712;BME280;2377;51.734;8.950;2023-02-27T00:45:03;98803.88;;;-0.18;74.48
27712;BME280;2377;51.734;8.950;2023-02-27T00:47:32;98805.78;;;-0.22;74.45
27712;BME280;2377;51.734;8.950;2023-02-27T00:49:59;98805.25;;;-0.26;74.76
27712;BME280;2377;51.734;8.950;2023-02-27T00:52:26;98800.44;;;-0.29;74.78
27712;BME280;2377;51.734;8.950;2023-02-27T00:54:54;98800.69;;;-0.32;75.25
27712;BME280;2377;51.734;8.950;2023-02-27T00:57:21;98805.81;;;-0.33;75.10
27712;BME280;2377;51.734;8.950;2023-02-27T00:59:48;98805.97;;;-0.35;75.14
27712;BME280;2377;51.734;8.950;2023-02-27T01:02:15;98803.00;;;-0.40;75.09
27712;BME280;2377;51.734;8.950;2023-02-27T01:04:43;98807.34;;;-0.42;75.06
27712;BME280;2377;51.734;8.950;2023-02-27T01:07:10;98811.44;;;-0.41;75.26
27712;BME280;2377;51.734;8.950;2023-02-27T01:09:38;98813.94;;;-0.41;75.57
27712;BME280;2377;51.734;8.950;2023-02-27T01:12:05;98809.84;;;-0.42;75.18
27712;BME280;2377;51.734;8.950;2023-02-27T01:14:32;98804.94;;;-0.44;75.29
27712;BME280;2377;51.734;8.950;2023-02-27T01:16:59;98804.25;;;-0.46;76.07
27712;BME280;2377;51.734;8.950;2023-02-27T01:19:26;98808.50;;;-0.46;76.04
27712;BME280;2377;51.734;8.950;2023-02-27T01:21:55;98827.78;;;-0.47;75.94
27712;BME280;2377;51.734;8.950;2023-02-27T01:24:22;98809.53;;;-0.49;76.08
27712;BME280;2377;51.734;8.950;2023-02-27T01:26:49;98811.09;;;-0.48;76.15
27712;BME280;2377;51.734;8.950;2023-02-27T01:29:17;98802.78;;;-0.48;76.33
27712;BME280;2377;51.734;8.950;2023-02-27T01:31:44;98801.06;;;-0.48;75.94
27712;BME280;2377;51.734;8.950;2023-02-27T01:34:11;98802.88;;;-0.50;75.54
27712;BME280;2377;51.734;8.950;2023-02-27T01:36:38;98800.84;;;-0.56;75.30
27712;BME280;2377;51.734;8.950;2023-02-27T01:39:10;98797.31;;;-0.65;75.15
27712;BME280;2377;51.734;8.950;2023-02-27T01:41:37;98798.69;;;-0.72;74.91
27712;BME280;2377;51.734;8.950;2023-02-27T01:44:07;98798.13;;;-0.75;74.97
27712;BME280;2377;51.734;8.950;2023-02-27T01:46:34;98790.28;;;-0.82;74.95
27712;BME280;2377;51.734;8.950;2023-02-27T01:49:08;98797.22;;;-0.86;75.17
27712;BME280;2377;51.734;8.950;2023-02-27T01:51:41;98796.69;;;-0.89;75.38
27712;BME280;2377;51.734;8.950;2023-02-27T01:54:16;98800.75;;;-0.88;75.35
27712;BME280;2377;51.734;8.950;2023-02-27T01:56:46;98799.84;;;-0.87;75.46
27712;BME280;2377;51.734;8.950;2023-02-27T01:59:15;98795.84;;;-0.90;76.19
27712;BME280;2377;51.734;8.950;2023-02-27T02:01:43;98791.19;;;-0.94;75.76
27712;BME280;2377;51.734;8.950;2023-02-27T02:04:18;98792.09;;;-0.95;75.86
27712;BME280;2377;51.734;8.950;2023-02-27T02:06:55;98800.56;;;-0.96;75.85
27712;BME280;2377;51.734;8.950;2023-02-27T02:09:27;98798.94;;;-0.97;75.42
27712;BME280;2377;51.734;8.950;2023-02-27T02:11:56;98799.88;;;-0.98;75.46
27712;BME280;2377;51.734;8.950;2023-02-27T02:14:23;98801.78;;;-1.02;76.01
27712;BME280;2377;51.734;8.950;2023-02-27T02:17:07;98812.63;;;-1.01;76.13
27712;BME280;2377;51.734;8.950;2023-02-27T02:24:02;98800.44;;;-1.17;78.36
27712;BME280;2377;51.734;8.950;2023-02-27T02:27:01;98804.41;;;-1.15;78.26
27712;BME280;2377;51.734;8.950;2023-02-27T02:40:17;98805.09;;;-1.13;78.26
27712;BME280;2377;51.734;8.950;2023-02-27T02:42:54;98811.59;;;-1.10;78.33
27712;BME280;2377;51.734;8.950;2023-02-27T02:45:29;98809.44;;;-1.03;77.94
27712;BME280;2377;51.734;8.950;2023-02-27T02:48:09;98810.59;;;-0.96;78.00
27712;BME280;2377;51.734;8.950;2023-02-27T02:50:43;98813.66;;;-0.93;77.69
27712;BME280;2377;51.734;8.950;2023-02-27T02:53:24;98816.16;;;-0.93;77.54
27712;BME280;2377;51.734;8.950;2023-02-27T02:56:03;98814.69;;;-0.95;77.50
27712;BME280;2377;51.734;8.950;2023-02-27T02:58:36;98813.75;;;-0.94;77.25
27712;BME280;2377;51.734;8.950;2023-02-27T03:01:14;98814.78;;;-0.97;77.20
27712;BME280;2377;51.734;8.950;2023-02-27T03:03:47;98812.41;;;-0.98;77.09
27712;BME280;2377;51.734;8.950;2023-02-27T03:06:22;98801.00;;;-1.02;76.95
27712;BME280;2377;51.734;8.950;2023-02-27T03:08:55;98806.00;;;-1.02;76.88
27712;BME280;2377;51.734;8.950;2023-02-27T03:11:29;98812.28;;;-1.08;76.67
27712;BME280;2377;51.734;8.950;2023-02-27T03:14:05;98808.75;;;-1.17;77.06
27712;BME280;2377;51.734;8.950;2023-02-27T03:16:39;98805.78;;;-1.22;76.99
27712;BME280;2377;51.734;8.950;2023-02-27T03:19:12;98815.44;;;-1.29;76.66
27712;BME280;2377;51.734;8.950;2023-02-27T03:21:47;98811.56;;;-1.33;76.89
27712;BME280;2377;51.734;8.950;2023-02-27T03:24:23;98810.78;;;-1.33;76.90
27712;BME280;2377;51.734;8.950;2023-02-27T03:26:57;98816.69;;;-1.34;77.23
27712;BME280;2377;51.734;8.950;2023-02-27T03:29:37;98815.78;;;-1.33;77.72
27712;BME280;2377;51.734;8.950;2023-02-27T03:32:15;98814.06;;;-1.33;77.42
27712;BME280;2377;51.734;8.950;2023-02-27T03:34:43;98808.25;;;-1.33;77.14
27712;BME280;2377;51.734;8.950;2023-02-27T03:37:24;98819.50;;;-1.39;76.62
27712;BME280;2377;51.734;8.950;2023-02-27T03:40:05;98817.38;;;-1.43;76.92
27712;BME280;2377;51.734;8.950;2023-02-27T03:42:41;98817.56;;;-1.46;76.57
27712;BME280;2377;51.734;8.950;2023-02-27T03:45:19;98814.50;;;-1.50;76.67
27712;BME280;2377;51.734;8.950;2023-02-27T03:47:49;98817.34;;;-1.55;76.92
27712;BME280;2377;51.734;8.950;2023-02-27T03:50:17;98811.88;;;-1.60;76.75
27712;BME280;2377;51.734;8.950;2023-02-27T03:52:45;98815.47;;;-1.64;77.04
27712;BME280;2377;51.734;8.950;2023-02-27T03:55:15;98803.19;;;-1.67;76.68
27712;BME280;2377;51.734;8.950;2023-02-27T03:57:48;98810.09;;;-1.71;76.54
27712;BME280;2377;51.734;8.950;2023-02-27T04:00:19;98807.94;;;-1.75;76.49
27712;BME280;2377;51.734;8.950;2023-02-27T04:02:49;98809.75;;;-1.77;76.77
27712;BME280;2377;51.734;8.950;2023-02-27T04:05:18;98814.84;;;-1.79;77.00
27712;BME280;2377;51.734;8.950;2023-02-27T04:08:00;98810.84;;;-1.81;77.11
27712;BME280;2377;51.734;8.950;2023-02-27T04:10:50;98805.19;;;-1.83;77.34
27712;BME280;2377;51.734;8.950;2023-02-27T04:13:50;98810.19;;;-1.83;77.71
27712;BME280;2377;51.734;8.950;2023-02-27T04:16:53;98812.78;;;-1.85;77.49
27712;BME280;2377;51.734;8.950;2023-02-27T04:19:40;98813.81;;;-1.87;77.29
27712;BME280;2377;51.734;8.950;2023-02-27T04:22:28;98814.00;;;-1.91;77.99
27712;BME280;2377;51.734;8.950;2023-02-27T04:25:20;98827.44;;;-1.92;77.77
27712;BME280;2377;51.734;8.950;2023-02-27T04:27:56;98831.66;;;-1.92;78.05
27712;BME280;2377;51.734;8.950;2023-02-27T04:30:36;98831.75;;;-1.94;77.96
27712;BME280;2377;51.734;8.950;2023-02-27T04:33:12;98835.28;;;-1.96;77.81
27712;BME280;2377;51.734;8.950;2023-02-27T04:35:50;98832.00;;;-1.97;77.59
27712;BME280;2377;51.734;8.950;2023-02-27T04:38:29;98836.06;;;-1.96;77.36
27712;BME280;2377;51.734;8.950;2023-02-27T04:41:04;98834.72;;;-2.00;77.53
27712;BME280;2377;51.734;8.950;2023-02-27T04:43:35;98829.72;;;-2.00;78.03
27712;BME280;2377;51.734;8.950;2023-02-27T04:46:08;98837.22;;;-2.00;78.33
27712;BME280;2377;51.734;8.950;2023-02-27T04:48:41;98842.56;;;-2.04;78.11
27712;BME280;2377;51.734;8.950;2023-02-27T04:51:15;98840.94;;;-2.05;78.02
27712;BME280;2377;51.734;8.950;2023-02-27T04:53:50;98845.16;;;-2.06;78.02
27712;BME280;2377;51.734;8.950;2023-02-27T04:56:24;98839.34;;;-2.06;78.06
27712;BME280;2377;51.734;8.950;2023-02-27T04:58:57;98846.16;;;-2.08;77.88
27712;BME280;2377;51.734;8.950;2023-02-27T05:01:34;98845.56;;;-2.12;78.53
27712;BME280;2377;51.734;8.950;2023-02-27T05:04:06;98857.19;;;-2.11;78.40
27712;BME280;2377;51.734;8.950;2023-02-27T05:06:37;98856.41;;;-2.11;78.47
27712;BME280;2377;51.734;8.950;2023-02-27T05:09:15;98860.72;;;-2.14;78.50
27712;BME280;2377;51.734;8.950;2023-02-27T05:11:51;98847.59;;;-2.17;78.45
27712;BME280;2377;51.734;8.950;2023-02-27T05:14:27;98847.38;;;-2.14;78.74
27712;BME280;2377;51.734;8.950;2023-02-27T05:17:04;98856.72;;;-2.16;77.98
27712;BME280;2377;51.734;8.950;2023-02-27T05:19:38;98857.59;;;-2.17;77.81
27712;BME280;2377;51.734;8.950;2023-02-27T05:22:21;98863.72;;;-2.21;77.44
27712;BME280;2377;51.734;8.950;2023-02-27T05:24:59;98857.13;;;-2.22;77.65
27712;BME280;2377;51.734;8.950;2023-02-27T05:27:38;98871.22;;;-2.21;77.65
27712;BME280;2377;51.734;8.950;2023-02-27T05:30:17;98869.25;;;-2.29;77.63
27712;BME280;2377;51.734;8.950;2023-02-27T05:32:54;98868.47;;;-2.29;77.83
27712;BME280;2377;51.734;8.950;2023-02-27T05:35:30;98865.25;;;-2.31;77.44
27712;BME280;2377;51.734;8.950;2023-02-27T05:38:05;98867.84;;;-2.33;77.53
27712;BME280;2377;51.734;8.950;2023-02-27T05:40:42;98868.88;;;-2.36;77.57
27712;BME280;2377;51.734;8.950;2023-02-27T05:43:18;98874.00;;;-2.37;77.35
27712;BME280;2377;51.734;8.950;2023-02-27T05:45:51;98875.66;;;-2.38;77.61
27712;BME280;2377;51.734;8.950;2023-02-27T05:48:25;98875.88;;;-2.41;77.43
27712;BME280;2377;51.734;8.950;2023-02-27T05:50:55;98872.81;;;-2.44;77.18
27712;BME280;2377;51.734;8.950;2023-02-27T05:53:29;98874.50;;;-2.45;77.74
27712;BME280;2377;51.734;8.950;2023-02-27T05:56:03;98877.91;;;-2.46;77.53
27712;BME280;2377;51.734;8.950;2023-02-27T05:58:38;98879.72;;;-2.48;77.73
27712;BME280;2377;51.734;8.950;2023-02-27T06:01:09;98874.00;;;-2.50;77.56
27712;BME280;2377;51.734;8.950;2023-02-27T06:03:39;98881.50;;;-2.50;77.76
27712;BME280;2377;51.734;8.950;2023-02-27T06:06:17;98886.50;;;-2.50;78.54
27712;BME280;2377;51.734;8.950;2023-02-27T06:08:45;98884.22;;;-2.53;78.28
27712;BME280;2377;51.734;8.950;2023-02-27T06:11:12;98879.31;;;-2.55;78.21
27712;BME280;2377;51.734;8.950;2023-02-27T06:13:39;98881.94;;;-2.56;78.39
27712;BME280;2377;51.734;8.950;2023-02-27T06:16:09;98888.53;;;-2.55;78.42
27712;BME280;2377;51.734;8.950;2023-02-27T06:18:38;98890.22;;;-2.56;78.02
27712;BME280;2377;51.734;8.950;2023-02-27T06:21:05;98897.75;;;-2.56;78.32
27712;BME280;2377;51.734;8.950;2023-02-27T06:23:32;98906.13;;;-2.57;77.98
27712;BME280;2377;51.734;8.950;2023-02-27T06:25:59;98902.84;;;-2.57;78.20
27712;BME280;2377;51.734;8.950;2023-02-27T06:28:26;98906.25;;;-2.58;78.11
27712;BME280;2377;51.734;8.950;2023-02-27T06:30:54;98908.94;;;-2.61;77.96
27712;BME280;2377;51.734;8.950;2023-02-27T06:33:22;98912.16;;;-2.59;78.32
27712;BME280;2377;51.734;8.950;2023-02-27T06:35:52;98920.34;;;-2.57;78.39
27712;BME280;2377;51.734;8.950;2023-02-27T06:38:19;98920.34;;;-2.57;78.74
27712;BME280;2377;51.734;8.950;2023-02-27T06:40:46;98927.78;;;-2.56;78.69
27712;BME280;2377;51.734;8.950;2023-02-27T06:43:13;98925.16;;;-2.54;78.67
27712;BME280;2377;51.734;8.950;2023-02-27T06:45:40;98933.34;;;-2.52;78.79
27712;BME280;2377;51.734;8.950;2023-02-27T06:48:08;98938.19;;;-2.49;79.01
27712;BME280;2377;51.734;8.950;2023-02-27T06:50:37;98938.56;;;-2.42;79.49
27712;BME280;2377;51.734;8.950;2023-02-27T06:53:05;98941.47;;;-2.36;79.13
27712;BME280;2377;51.734;8.950;2023-02-27T06:55:32;98950.84;;;-2.26;79.71
27712;BME280;2377;51.734;8.950;2023-02-27T06:57:59;98953.66;;;-2.18;79.80
27712;BME280;2377;51.734;8.950;2023-02-27T07:00:26;98950.56;;;-2.09;79.80
27712;BME280;2377;51.734;8.950;2023-02-27T07:02:54;98952.44;;;-2.00;80.16
27712;BME280;2377;51.734;8.950;2023-02-27T07:05:21;98950.91;;;-1.89;80.40
27712;BME280;2377;51.734;8.950;2023-02-27T07:07:48;98953.56;;;-1.80;80.47
27712;BME280;2377;51.734;8.950;2023-02-27T07:10:16;98965.56;;;-1.72;81.05
27712;BME280;2377;51.734;8.950;2023-02-27T07:12:44;98959.94;;;-1.63;80.78
27712;BME280;2377;51.734;8.950;2023-02-27T07:15:11;98954.28;;;-1.54;81.19
27712;BME280;2377;51.734;8.950;2023-02-27T07:17:38;98951.56;;;-1.51;81.49
27712;BME280;2377;51.734;8.950;2023-02-27T07:20:08;98960.38;;;-1.45;81.53
27712;BME280;2377;51.734;8.950;2023-02-27T07:22:36;98963.34;;;-1.40;81.47
27712;BME280;2377;51.734;8.950;2023-02-27T07:25:05;98961.13;;;-1.32;81.35
27712;BME280;2377;51.734;8.950;2023-02-27T07:27:34;98962.38;;;-1.26;81.36
27712;BME280;2377;51.734;8.950;2023-02-27T07:30:01;98966.06;;;-1.19;81.66
27712;BME280;2377;51.734;8.950;2023-02-27T07:32:28;98965.41;;;-1.10;81.76
27712;BME280;2377;51.734;8.950;2023-02-27T07:34:55;98974.78;;;-1.00;82.50
27712;BME280;2377;51.734;8.950;2023-02-27T07:37:22;98968.53;;;-0.95;83.06
27712;BME280;2377;51.734;8.950;2023-02-27T07:39:49;98970.47;;;-0.87;83.96
27712;BME280;2377;51.734;8.950;2023-02-27T07:42:16;98972.88;;;-0.86;84.24
27712;BME280;2377;51.734;8.950;2023-02-27T07:44:45;98972.56;;;-0.81;84.76
27712;BME280;2377;51.734;8.950;2023-02-27T07:47:12;98975.66;;;-0.77;85.12
27712;BME280;2377;51.734;8.950;2023-02-27T07:49:39;98974.63;;;-0.75;85.12
27712;BME280;2377;51.734;8.950;2023-02-27T07:52:06;98975.78;;;-0.68;84.84
27712;BME280;2377;51.734;8.950;2023-02-27T07:54:33;98979.91;;;-0.55;85.15
27712;BME280;2377;51.734;8.950;2023-02-27T07:57:02;98978.53;;;-0.48;85.28
27712;BME280;2377;51.734;8.950;2023-02-27T07:59:29;98980.63;;;-0.42;85.63
27712;BME280;2377;51.734;8.950;2023-02-27T08:01:57;98969.31;;;-0.36;85.60
27712;BME280;2377;51.734;8.950;2023-02-27T08:04:24;98984.72;;;-0.30;85.64
27712;BME280;2377;51.734;8.950;2023-02-27T08:06:51;98992.13;;;-0.17;85.33
27712;BME280;2377;51.734;8.950;2023-02-27T08:09:18;98986.66;;;-0.11;84.94
27712;BME280;2377;51.734;8.950;2023-02-27T08:11:45;98985.41;;;-0.05;85.93
27712;BME280;2377;51.734;8.950;2023-02-27T08:14:13;98985.88;;;0.00;85.20
27712;BME280;2377;51.734;8.950;2023-02-27T08:16:40;98984.50;;;0.07;84.97
27712;BME280;2377;51.734;8.950;2023-02-27T08:19:10;98979.44;;;0.18;85.15
27712;BME280;2377;51.734;8.950;2023-02-27T08:21:37;98978.72;;;0.28;85.03
27712;BME280;2377;51.734;8.950;2023-02-27T08:24:05;98978.03;;;0.37;84.87
27712;BME280;2377;51.734;8.950;2023-02-27T08:26:32;98975.84;;;0.44;84.26
27712;BME280;2377;51.734;8.950;2023-02-27T08:28:59;98981.06;;;0.52;84.56
27712;BME280;2377;51.734;8.950;2023-02-27T08:31:26;98975.81;;;0.55;84.13
27712;BME280;2377;51.734;8.950;2023-02-27T08:33:53;98977.75;;;0.62;83.87
27712;BME280;2377;51.734;8.950;2023-02-27T08:36:22;98978.84;;;0.70;84.34
27712;BME280;2377;51.734;8.950;2023-02-27T08:38:49;98979.72;;;0.80;84.47
27712;BME280;2377;51.734;8.950;2023-02-27T08:41:16;98990.69;;;0.90;nan
27712;BME280;2377;51.734;8.950;2023-02-27T08:43:43;98990.75;;;1.00;83.11
27712;BME280;2377;51.734;8.950;2023-02-27T08:46:10;98982.09;;;1.14;82.85
27712;BME280;2377;51.734;8.950;2023-02-27T08:48:37;98988.56;;;1.27;82.44
27712;BME280;2377;51.734;8.950;2023-02-27T08:51:04;98994.63;;;1.46;81.39
27712;BME280;2377;51.734;8.950;2023-02-27T08:53:33;98993.66;;;1.68;81.21
27712;BME280;2377;51.734;8.950;2023-02-27T08:56:00;98998.66;;;1.89;80.18
27712;BME280;2377;51.734;8.950;2023-02-27T08:58:27;99000.34;;;2.09;79.76
27712;BME280;2377;51.734;8.950;2023-02-27T09:00:54;99003.56;;;2.31;79.67
27712;BME280;2377;51.734;8.950;2023-02-27T09:03:21;98999.22;;;2.52;78.96
27712;BME280;2377;51.734;8.950;2023-02-27T09:05:57;99001.25;;;2.78;78.40
27712;BME280;2377;51.734;8.950;2023-02-27T09:08:24;98997.78;;;2.99;77.32
27712;BME280;2377;51.734;8.950;2023-02-27T09:10:56;99005.19;;;3.20;76.55
27712;BME280;2377;51.734;8.950;2023-02-27T09:13:23;99009.41;;;3.38;75.30
27712;BME280;2377;51.734;8.950;2023-02-27T09:15:51;99010.34;;;3.47;74.30
27712;BME280;2377;51.734;8.950;2023-02-27T09:18:19;99011.25;;;3.56;71.88
27712;BME280;2377;51.734;8.950;2023-02-27T09:20:48;99016.56;;;3.63;71.42
27712;BME280;2377;51.734;8.950;2023-02-27T09:23:15;99017.63;;;3.70;70.86
27712;BME280;2377;51.734;8.950;2023-02-27T09:25:42;99020.78;;;3.81;70.71
27712;BME280;2377;51.734;8.950;2023-02-27T09:28:11;99019.66;;;3.94;70.69
27712;BME280;2377;51.734;8.950;2023-02-27T09:30:38;99022.94;;;4.04;70.00
27712;BME280;2377;51.734;8.950;2023-02-27T09:33:05;99024.53;;;4.05;68.20
27712;BME280;2377;51.734;8.950;2023-02-27T09:35:32;99028.09;;;4.12;68.42
27712;BME280;2377;51.734;8.950;2023-02-27T09:37:59;99019.28;;;4.16;67.53
27712;BME280;2377;51.734;8.950;2023-02-27T09:40:29;99018.53;;;4.34;68.64
27712;BME280;2377;51.734;8.950;2023-02-27T09:43:00;99017.31;;;4.38;68.88
27712;BME280;2377;51.734;8.950;2023-02-27T09:45:31;99023.53;;;4.43;67.91
27712;BME280;2377;51.734;8.950;2023-02-27T09:48:12;99017.63;;;4.25;67.72
27712;BME280;2377;51.734;8.950;2023-02-27T09:50:44;99010.63;;;4.19;67.52
27712;BME280;2377;51.734;8.950;2023-02-27T09:53:17;99007.44;;;4.17;67.81
27712;BME280;2377;51.734;8.950;2023-02-27T09:55:48;99012.56;;;3.97;67.46
27712;BME280;2377;51.734;8.950;2023-02-27T09:58:30;99008.25;;;3.80;66.97
27712;BME280;2377;51.734;8.950;2023-02-27T10:01:12;99007.66;;;3.58;67.16
27712;BME280;2377;51.734;8.950;2023-02-27T10:04:06;99007.31;;;3.34;67.19
27712;BME280;2377;51.734;8.950;2023-02-27T10:06:42;99007.09;;;3.17;68.78
27712;BME280;2377;51.734;8.950;2023-02-27T10:09:28;99015.03;;;3.03;68.42
27712;BME280;2377;51.734;8.950;2023-02-27T10:12:14;99022.78;;;2.92;69.87
27712;BME280;2377;51.734;8.950;2023-02-27T10:14:49;99012.41;;;2.95;69.69
27712;BME280;2377;51.734;8.950;2023-02-27T10:17:23;99012.00;;;2.90;68.33
27712;BME280;2377;51.734;8.950;2023-02-27T10:19:53;99014.00;;;2.86;69.48
27712;BME280;2377;51.734;8.950;2023-02-27T10:22:26;99013.88;;;2.88;69.08
27712;BME280;2377;51.734;8.950;2023-02-27T10:25:02;99018.25;;;2.86;69.08
27712;BME280;2377;51.734;8.950;2023-02-27T10:27:31;99008.16;;;2.86;68.62
27712;BME280;2377;51.734;8.950;2023-02-27T10:30:17;99012.41;;;2.75;68.59
27712;BME280;2377;51.734;8.950;2023-02-27T10:32:48;99013.59;;;2.71;68.61
27712;BME280;2377;51.734;8.950;2023-02-27T10:35:27;99013.59;;;2.71;70.09
27712;BME280;2377;51.734;8.950;2023-02-27T10:38:01;99012.81;;;2.71;69.67
27712;BME280;2377;51.734;8.950;2023-02-27T10:40:30;99003.34;;;2.63;68.36
27712;BME280;2377;51.734;8.950;2023-02-27T10:43:01;99000.41;;;2.58;68.64
27712;BME280;2377;51.734;8.950;2023-02-27T10:45:29;99008.78;;;2.59;69.08
27712;BME280;2377;51.734;8.950;2023-02-27T10:47:57;99007.09;;;2.69;68.74
27712;BME280;2377;51.734;8.950;2023-02-27T10:50:29;98999.13;;;2.83;69.74
27712;BME280;2377;51.734;8.950;2023-02-27T10:52:59;99003.66;;;2.89;68.57
27712;BME280;2377;51.734;8.950;2023-02-27T10:55:29;99001.75;;;2.91;69.23
27712;BME280;2377;51.734;8.950;2023-02-27T10:57:58;99002.56;;;3.02;69.62
27712;BME280;2377;51.734;8.950;2023-02-27T11:00:40;99007.19;;;3.26;68.23
27712;BME280;2377;51.734;8.950;2023-02-27T11:03:19;99009.19;;;3.32;68.55
27712;BME280;2377;51.734;8.950;2023-02-27T11:05:54;99008.47;;;3.49;71.01
27712;BME280;2377;51.734;8.950;2023-02-27T11:08:25;99007.22;;;3.73;69.99
27712;BME280;2377;51.734;8.950;2023-02-27T11:10:59;99012.22;;;3.83;69.20
27712;BME280;2377;51.734;8.950;2023-02-27T11:13:29;99012.56;;;3.97;67.84
27712;BME280;2377;51.734;8.950;2023-02-27T11:16:06;99007.84;;;4.12;67.66
27712;BME280;2377;51.734;8.950;2023-02-27T11:18:37;98999.25;;;4.23;67.98
27712;BME280;2377;51.734;8.950;2023-02-27T11:21:21;99005.09;;;4.33;66.18
27712;BME280;2377;51.734;8.950;2023-02-27T11:23:56;99013.34;;;4.35;67.20
27712;BME280;2377;51.734;8.950;2023-02-27T11:26:28;99011.06;;;4.32;66.10
27712;BME280;2377;51.734;8.950;2023-02-27T11:29:14;99007.88;;;4.30;67.29
27712;BME280;2377;51.734;8.950;2023-02-27T11:31:50;99005.66;;;4.27;66.08
27712;BME280;2377;51.734;8.950;2023-02-27T11:34:30;99017.41;;;4.18;65.29
27712;BME280;2377;51.734;8.950;2023-02-27T11:37:01;99004.63;;;4.20;65.58
27712;BME280;2377;51.734;8.950;2023-02-27T11:39:36;99006.72;;;4.24;66.34
27712;BME280;2377;51.734;8.950;2023-02-27T11:42:22;99004.94;;;4.35;66.30
27712;BME280;2377;51.734;8.950;2023-02-27T11:44:55;99003.22;;;4.35;65.56
27712;BME280;2377;51.734;8.950;2023-02-27T11:47:29;99004.84;;;4.27;64.91
27712;BME280;2377;51.734;8.950;2023-02-27T11:50:28;99007.06;;;4.12;64.64
27712;BME280;2377;51.734;8.950;2023-02-27T11:53:16;98997.50;;;4.06;63.96
27712;BME280;2377;51.734;8.950;2023-02-27T11:55:51;98995.03;;;3.96;64.34
27712;BME280;2377;51.734;8.950;2023-02-27T11:58:22;98996.59;;;3.97;64.98
27712;BME280;2377;51.734;8.950;2023-02-27T12:00:57;98991.78;;;4.03;65.08
27712;BME280;2377;51.734;8.950;2023-02-27T12:03:35;98989.91;;;4.06;65.06
27712;BME280;2377;51.734;8.950;2023-02-27T12:06:16;98987.09;;;4.09;64.72
27712;BME280;2377;51.734;8.950;2023-02-27T12:08:51;98986.31;;;4.08;64.47
27712;BME280;2377;51.734;8.950;2023-02-27T12:11:25;98987.75;;;4.11;64.24
27712;BME280;2377;51.734;8.950;2023-02-27T12:14:00;98977.72;;;4.19;65.05
27712;BME280;2377;51.734;8.950;2023-02-27T12:16:37;98982.56;;;4.30;65.32
27712;BME280;2377;51.734;8.950;2023-02-27T12:19:20;98974.13;;;4.39;62.50
27712;BME280;2377;51.734;8.950;2023-02-27T12:21:55;98971.03;;;4.45;64.22
27712;BME280;2377;51.734;8.950;2023-02-27T12:24:30;98977.03;;;4.44;62.60
27712;BME280;2377;51.734;8.950;2023-02-27T12:27:15;98969.44;;;4.44;62.85
27712;BME280;2377;51.734;8.950;2023-02-27T12:29:51;98971.69;;;4.48;61.63
27712;BME280;2377;51.734;8.950;2023-02-27T12:32:24;98972.19;;;4.51;61.04
27712;BME280;2377;51.734;8.950;2023-02-27T12:34:58;98965.66;;;4.49;60.63
27712;BME280;2377;51.734;8.950;2023-02-27T12:37:30;98969.16;;;4.48;60.51
27712;BME280;2377;51.734;8.950;2023-02-27T12:40:02;98969.28;;;4.46;61.13
27712;BME280;2377;51.734;8.950;2023-02-27T12:42:59;98971.47;;;4.41;60.29
27712;BME280;2377;51.734;8.950;2023-02-27T12:46:15;98971.53;;;4.31;60.85
27712;BME280;2377;51.734;8.950;2023-02-27T12:49:04;98962.38;;;4.20;60.29
27712;BME280;2377;51.734;8.950;2023-02-27T12:51:48;98965.78;;;4.11;60.85
27712;BME280;2377;51.734;8.950;2023-02-27T12:54:34;98964.47;;;4.07;59.93
27712;BME280;2377;51.734;8.950;2023-02-27T12:57:26;98957.56;;;4.09;61.33
27712;BME280;2377;51.734;8.950;2023-02-27T13:00:07;98967.63;;;4.19;61.85
27712;BME280;2377;51.734;8.950;2023-02-27T13:03:01;98966.75;;;4.28;62.90
27712;BME280;2377;51.734;8.950;2023-02-27T13:05:40;98962.97;;;4.32;64.89
27712;BME280;2377;51.734;8.950;2023-02-27T13:08:34;98969.88;;;4.40;62.38
27712;BME280;2377;51.734;8.950;2023-02-27T13:11:20;98976.16;;;4.54;63.28
27712;BME280;2377;51.734;8.950;2023-02-27T13:13:54;98978.47;;;4.65;62.55
27712;BME280;2377;51.734;8.950;2023-02-27T13:16:28;98969.97;;;4.66;60.68
27712;BME280;2377;51.734;8.950;2023-02-27T13:19:05;98969.00;;;4.67;60.38
27712;BME280;2377;51.734;8.950;2023-02-27T13:21:45;98967.47;;;4.74;60.36
27712;BME280;2377;51.734;8.950;2023-02-27T13:24:23;98966.47;;;4.67;59.63
27712;BME280;2377;51.734;8.950;2023-02-27T13:26:59;98966.97;;;4.53;59.30
27712;BME280;2377;51.734;8.950;2023-02-27T13:29:37;98970.94;;;4.37;59.00
27712;BME280;2377;51.734;8.950;2023-02-27T13:32:20;98974.63;;;4.25;59.96
27712;BME280;2377;51.734;8.950;2023-02-27T13:34:54;98972.75;;;4.27;60.75
27712;BME280;2377;51.734;8.950;2023-02-27T13:37:24;98965.50;;;4.32;61.07
27712;BME280;2377;51.734;8.950;2023-02-27T13:40:35;98966.91;;;4.44;60.99
27712;BME280;2377;51.734;8.950;2023-02-27T13:43:27;98963.66;;;4.52;59.33
27712;BME280;2377;51.734;8.950;2023-02-27T13:45:57;98966.31;;;4.51;59.16
27712;BME280;2377;51.734;8.950;2023-02-27T13:48:47;98966.97;;;4.53;58.17
27712;BME280;2377;51.734;8.950;2023-02-27T13:51:53;98954.03;;;4.56;59.74
27712;BME280;2377;51.734;8.950;2023-02-27T13:54:31;98965.16;;;4.63;60.23
27712;BME280;2377;51.734;8.950;2023-02-27T13:57:23;98956.88;;;4.71;59.07
27712;BME280;2377;51.734;8.950;2023-02-27T14:00:06;98949.63;;;4.76;59.15
27712;BME280;2377;51.734;8.950;2023-02-27T14:02:52;98947.88;;;4.76;58.26